Yorkana, Pennsylvania
Current Conditions -  °F | °C
As of 6:56 AM on Thursday 29 Jan 2015 (Local Time) from KMDT Reporting Station
Clear Clear  
Wind Chill:   Ceiling: Unl
Heat Index: 10°   Visibility: 9mi
Dew Point:   Wind: 5mph
Humidity: 80%   Direction: NA
Pressure: 30.31"   Gusts: NA
Location:  40.0152°N, 76.5974°W
Report Text: KMDT 291156Z VRB04KT 9SM CLR M12/M15 A3031 RMK AO2 SLP270 T11221150 11078 21122 56003
Loading
Personal Weather Stations






























Interactive Weather Map New forecast layout! Learn more

10-Day Weather Forecast

Advertisements
Track Severe Weather on mobile